Tiempo atmosférico en la estación meteorológica de Bañobárez, Salamanca (748 m.)



Fecha
DESCASC
Temp. máxima en grados centígrados (hora)
DESCASC
Temp. mínima en grados centígrados (hora)
DESCASC
Temp. media en grados centígrados
DESCASC
Racha de viento máxima en m/sg (hora)
DESCASC
Velocidad máxima media en intervalos de 10 minutos(hora)
DESCASC
Precipitaciones diarias en mm
DESCASC
Precipitaciones de 00:00 a 06:00 en mm
DESCASC
Precipitaciones de 06:00 a 12:00 en mm
DESCASC
Precipitaciones de 12:00 a 18:00 en mm
DESCASC
Precipitaciones de 18:00 a 24:00 en mm
DESCASC
20-02-2020 14.4 (16:20) -0.2 (06:40) 7.1 4.72 (17:20) 2.78 (17:00) 0 0 0 0 0
19-02-2020 12.4 (16:50) -0.6 (06:30) 5.9 8.06 (12:00) 5.83 (12:10) 0 0 0 0 0
18-02-2020 10.1 (16:20) -1.6 (06:40) 4.3 6.11 (16:30) 3.61 (09:50) 0 0 0 0 0
17-02-2020 11.5 (16:00) 2.3 (23:50) 6.9 9.17 (00:50) 6.11 (01:00) 0.2 0 0 0 0.2
16-02-2020 14.4 (16:20) 4.7 (00:00) 9.5 10.28 (13:40) 6.94 (12:50) 0 0 0 0 0
15-02-2020 15.1 (16:00) 3 (07:50) 9.1 7.5 (16:20) 4.44 (16:40) 0 0 0 0 0
14-02-2020 14.3 (17:10) 1.7 (00:00) 8 4.72 (17:40) 3.06 (17:50) 0 0 0 0 0
13-02-2020 12.5 (14:10) 4.3 (00:00) 8.4 7.78 (14:50) 4.72 (15:50) 0 0 0 0 0
12-02-2020 14.6 (14:20) 4.7 (00:00) 9.7 5.28 (23:20) 3.33 (23:20) -- -- 0 0 0
11-02-2020 13.2 (17:30) 4.8 (00:00) 9 3.61 (13:10) 2.22 (14:00) -- -- -- -- --
10-02-2020 12.8 (16:00) 7.7 (00:00) 10.3 8.06 (16:10) 5 (16:40) -- -- -- -- --
09-02-2020 12.3 (15:20) 7.1 (00:00) 9.7 7.22 (15:40) 4.72 (16:40) -- -- -- -- --
08-02-2020 12.8 (16:20) 7.2 (00:00) 10 8.06 (15:20) 5.28 (15:50) -- -- -- -- --
07-02-2020 14.2 (15:40) 4 (00:00) 9.1 7.5 (16:20) 4.72 (16:30) -- -- -- -- --
06-02-2020 14.2 (15:00) 1.1 (00:00) 7.6 7.22 (14:10) 4.72 (14:40) -- -- -- -- --
05-02-2020 11.8 (15:40) 3 (00:00) 7.4 10.28 (10:10) 5.83 (09:40) -- -- -- -- --
04-02-2020 16.6 (16:00) 3.7 (00:00) 10.2 6.11 (23:10) 4.17 (23:10) -- -- -- -- --
03-02-2020 19.6 (16:20) 4 (09:00) 11.8 7.78 (16:40) 5 (16:40) -- -- -- -- --
02-02-2020 17.1 (15:40) 9.7 (00:00) 13.4 7.22 (12:00) 5 (13:20) -- -- -- -- --
01-02-2020 15.1 (15:30) 11 (00:00) 13.1 10 (03:20) 6.39 (03:20) -- -- -- -- --
31-01-2020 13.3 (14:40) 9.5 (00:00) 11.4 8.33 (14:40) 5.28 (14:50) -- -- -- -- --
30-01-2020 10.4 (15:10) 7.4 (00:00) 8.9 10.83 (15:00) 6.67 (15:40) -- -- -- -- --
29-01-2020 11.6 (14:30) 8.3 (00:00) 10 8.61 (14:50) 5 (14:50) -- -- -- -- --
28-01-2020 11.1 (13:40) 8.5 (00:00) 9.8 10.56 (19:00) 6.39 (19:00) -- -- -- -- --
27-01-2020 9.3 (17:20) 4.6 (00:00) 7 12.5 (11:50) 7.78 (12:30) -- -- -- -- --
26-01-2020 10.1 (15:20) -1.9 (-00:0) 4.1 7.22 (15:30) 5 (16:40) -- -- -- -- --
25-01-2020 7.3 (14:00) 0.2 (00:00) 3.8 6.11 (00:10) 4.17 (00:10) -- -- -- -- --
24-01-2020 9.1 (12:40) 4.3 (00:00) 6.7 6.11 (23:59) 4.17 (23:59) -- -- -- -- --
23-01-2020 7.9 (15:50) 2.7 (00:00) 5.3 7.22 (19:40) 4.44 (19:50) -- -- -- -- --
22-01-2020 9 (15:40) 3 (00:00) 6 11.67 (04:50) 6.67 (11:20) -- -- -- -- --

Gráficas

Temp. máximas Temp. mínimas Temp. medias Precipitaciones Rachas de viento máximas Velocidades máximas media en intervalos de 10 minutos

Datos horarios

Fecha y hora oficial Temperatura (ºC) Velocidad del viento (km/h) Dirección del viento Racha (km/h) Dirección de racha Precipitación (mm) Presión (hPa) Tendencia (hPa) Humedad (%)
2020-02-20 23:00:00 4.2 5 Este 11 Este 0 -- -- 79
2020-02-20 22:00:00 4.7 6 Este 9 Este 0 -- -- 81
2020-02-20 21:00:00 5 6 Este 8 Este 0 -- -- 81
2020-02-20 20:00:00 7.5 3 Este 7 Nordeste 0 -- -- 69
2020-02-20 19:00:00 13 5 Nordeste 10 Este 0 -- -- 60
2020-02-20 18:00:00 14.3 9 Este 17 Este 0 -- -- 53
2020-02-20 17:00:00 14.4 10 Este 15 Nordeste 0 -- -- 54
2020-02-20 16:00:00 14 5 Nordeste 14 Este 0 -- -- 56
2020-02-20 15:00:00 13.8 4 Nordeste 10 Este 0 -- -- 65
2020-02-20 14:00:00 12.7 3 Este 11 Norte 0 -- -- 63
2020-02-20 13:00:00 12 5 Noroeste 13 Oeste 0 -- -- 69
2020-02-20 12:00:00 11 0 Calma 8 Sudoeste 0 -- -- 72
2020-02-20 11:00:00 9.5 2 Sur 7 Sur 0 -- -- 75
2020-02-20 10:00:00 6.5 5 Sur 12 Sudeste 0 -- -- 83
2020-02-20 09:00:00 1.2 6 Sur 9 Sur 0 -- -- 94
2020-02-20 08:00:00 0.9 8 Sur 11 Sur 0 -- -- 94
2020-02-20 07:00:00 0 0 Calma 7 Sudeste 0 -- -- 93
2020-02-20 06:00:00 -- -- -- -- -- -- -- -- --
2020-02-20 05:00:00 -- -- -- -- -- -- -- -- --
2020-02-20 04:00:00 -- -- -- -- -- -- -- -- --
2020-02-20 03:00:00 -- -- -- -- -- -- -- -- --
2020-02-20 02:00:00 3.3 6 Sur 9 Sur 0 -- -- 83
2020-02-20 01:00:00 1.4 5 Sur 7 Sur 0 -- -- 87
2020-02-20 00:00:00 1.2 2 Sudeste 12 Sur 0 -- -- 84
2020-02-19 23:00:00 2.3 3 Sudeste 4 Este 0 -- -- 84
2020-02-19 22:00:00 3.5 -- -- -- -- 0 -- -- 80
2020-02-19 21:00:00 4 4 Este 5 Este 0 -- -- 77
2020-02-19 20:00:00 5.1 2 Sudeste 4 Sudeste 0 -- -- 73
2020-02-19 19:00:00 10 2 Este 8 Este 0 -- -- 60
2020-02-19 18:00:00 12.3 5 Este 11 Este 0 -- -- 49
2020-02-19 17:00:00 12.4 8 Este 13 Este 0 -- -- 45
2020-02-19 16:00:00 12 6 Nordeste 16 Nordeste 0 -- -- 48
2020-02-19 15:00:00 11.3 9 Este 15 Este 0 -- -- 56
2020-02-19 14:00:00 10.4 10 Este 23 Este 0 -- -- 58
2020-02-19 13:00:00 9.2 14 Este 27 Este 0 -- -- 61
2020-02-19 12:00:00 8.2 20 Este 29 Este 0 -- -- 65
2020-02-19 11:00:00 5.7 14 Este 23 Este 0 -- -- 73
2020-02-19 10:00:00 3.4 13 Este 22 Este 0 -- -- 80
2020-02-19 09:00:00 0.3 12 Este 19 Este 0 -- -- 90
2020-02-19 08:00:00 -0.2 8 Este 18 Nordeste 0 -- -- 91
2020-02-19 07:00:00 -0.1 10 Nordeste 18 Nordeste 0 -- -- 90
2020-02-19 06:00:00 0.6 0 Calma 10 Nordeste 0 -- -- 87
2020-02-19 05:00:00 1.2 7 Este 14 Este 0 -- -- 88
2020-02-19 04:00:00 1.2 9 Este 14 Este 0 -- -- 87
2020-02-19 03:00:00 1.5 5 Este 13 Este 0 -- -- 84
2020-02-19 02:00:00 1.9 4 Este 18 Este 0 -- -- 84
2020-02-19 01:00:00 3 10 Este 17 Nordeste 0 -- -- 82
2020-02-19 00:00:00 3.6 7 Este 14 Este 0 -- -- 79
2020-02-18 23:00:00 3.4 10 Este 15 Este 0 -- -- 80
2020-02-18 22:00:00 4 5 Este 14 Este 0 -- -- 80
2020-02-18 21:00:00 5.6 6 Nordeste 12 Nordeste 0 -- -- 76
2020-02-18 20:00:00 5.7 4 Norte 6 Norte 0 -- -- 74
2020-02-18 19:00:00 7.7 5 Norte 18 Norte 0 -- -- 69
2020-02-18 18:00:00 9.7 8 Nordeste 20 Norte 0 -- -- 62
2020-02-18 17:00:00 10.1 11 Norte 22 Norte 0 -- -- 60
2020-02-18 16:00:00 9.9 11 Nordeste 21 Nordeste 0 -- -- 63
2020-02-18 15:00:00 8.9 9 Nordeste 16 Nordeste 0 -- -- 74
2020-02-18 14:00:00 8 7 Este 15 Este 0 -- -- 82
2020-02-18 13:00:00 5.7 9 Este 19 Este 0 -- -- 91
2020-02-18 12:00:00 4.1 9 Nordeste 17 Este 0 -- -- 99
2020-02-18 11:00:00 2.8 8 Nordeste 15 Nordeste 0 -- -- 98
2020-02-18 10:00:00 1.4 8 Nordeste 21 Nordeste 0 -- -- 98
2020-02-18 09:00:00 -0.8 7 Norte 14 Nordeste 0 -- -- 97
2020-02-18 08:00:00 -0.9 5 Norte 8 Norte 0 -- -- 95
2020-02-18 07:00:00 -1.6 2 Norte 3 Norte 0 -- -- 93
2020-02-18 06:00:00 -0.5 0 Calma 10 Este 0 -- -- 90
2020-02-18 05:00:00 1.5 8 Este 12 Este 0 -- -- 88
2020-02-18 04:00:00 1.7 8 Este 11 Este 0 -- -- 87
2020-02-18 03:00:00 1.9 7 Este 12 Nordeste 0 -- -- 87
2020-02-18 02:00:00 3.7 7 Nordeste 10 Nordeste 0 -- -- 84
2020-02-18 01:00:00 3.4 5 Nordeste 8 Nordeste 0 -- -- 87
2020-02-18 00:00:00 2.3 3 Norte 6 Norte 0 -- -- 88
2020-02-17 23:00:00 3.2 3 Norte 6 Norte 0 -- -- 85
2020-02-17 22:00:00 3.3 3 Nordeste 5 Norte 0.2 -- -- 84
2020-02-17 21:00:00 4.4 0 Calma 9 Noroeste 0 -- -- 79
2020-02-17 20:00:00 6.1 4 Nordeste 13 Noroeste 0 -- -- 76
2020-02-17 19:00:00 9 7 Norte 15 Noroeste 0 -- -- 69
2020-02-17 18:00:00 10 7 Noroeste 19 Norte 0 -- -- 68
2020-02-17 17:00:00 11.4 9 Norte 24 Norte 0 -- -- 67
2020-02-17 16:00:00 11.5 11 Noroeste 19 Norte 0 -- -- 68
2020-02-17 15:00:00 11.3 8 Noroeste 26 Noroeste 0 -- -- 71
2020-02-17 14:00:00 10.9 15 Oeste 29 Noroeste 0 -- -- 73
2020-02-17 13:00:00 10.6 18 Noroeste 27 Oeste 0 -- -- 82
2020-02-17 12:00:00 9.6 16 Noroeste 28 Noroeste 0 -- -- 92
2020-02-17 11:00:00 9.9 21 Oeste 30 Oeste 0 -- -- 94
2020-02-17 10:00:00 9.9 14 Oeste 30 Oeste 0 -- -- 97
2020-02-17 09:00:00 10.3 14 Sudoeste 26 Sudoeste 0 -- -- 97
2020-02-17 08:00:00 10.1 13 Sudoeste 23 Sudoeste 0 -- -- 96
2020-02-17 07:00:00 9.9 12 Sudoeste 26 Sur 0 -- -- 95
2020-02-17 06:00:00 9.7 13 Sur 24 Sudoeste 0 -- -- 95
2020-02-17 05:00:00 9.6 12 Sur 22 Sur 0 -- -- 93
2020-02-17 04:00:00 9.4 13 Sur 22 Sur 0 -- -- 92
2020-02-17 03:00:00 9.5 13 Sur 26 Sur 0 -- -- 91
2020-02-17 02:00:00 9.6 17 Sur 28 Sur 0 -- -- 90
2020-02-17 01:00:00 9.8 22 Sur 33 Sur 0 -- -- 90
2020-02-17 00:00:00 9.4 15 Sur 25 Sur 0 -- -- 90
2020-02-16 23:00:00 10 14 Sur 30 Sudoeste 0 -- -- 88
2020-02-16 22:00:00 10.4 11 Oeste 19 Oeste 0 -- -- 89
2020-02-16 21:00:00 10.9 13 Sudoeste 22 Sudoeste 0 -- -- 87
2020-02-16 20:00:00 11.4 9 Oeste 24 Oeste 0 -- -- 85
2020-02-16 19:00:00 12 15 Oeste 24 Oeste 0 -- -- 82
2020-02-16 18:00:00 13.2 13 Oeste 26 Oeste 0 -- -- 76
2020-02-16 17:00:00 14 16 Oeste 28 Oeste 0 -- -- 72
2020-02-16 16:00:00 14.3 17 Oeste 30 Oeste 0 -- -- 71
2020-02-16 15:00:00 13.9 17 Sudoeste 33 Sudoeste 0 -- -- 73
2020-02-16 14:00:00 13.8 24 Sudoeste 37 Sudoeste 0 -- -- 72
2020-02-16 13:00:00 13 24 Sudoeste 35 Sudoeste 0 -- -- 75
2020-02-16 12:00:00 12.2 19 Sudoeste 34 Sudoeste 0 -- -- 80
2020-02-16 11:00:00 11 15 Sudoeste 24 Sudoeste 0 -- -- 87
2020-02-16 10:00:00 9.4 11 Sudoeste 18 Sudoeste 0 -- -- 92
2020-02-16 09:00:00 7.4 9 Sur 15 Sur 0 -- -- 98
2020-02-16 08:00:00 6.3 9 Sur 16 Sur 0 -- -- 97
2020-02-16 07:00:00 6.7 11 Sur 17 Sur 0 -- -- 97
2020-02-16 06:00:00 6.3 10 Sur 17 Sur 0 -- -- 98
2020-02-16 05:00:00 5.8 2 Sur 12 Sur 0 -- -- 97
2020-02-16 04:00:00 5.9 5 Sudoeste 10 Sudoeste 0 -- -- 98
2020-02-16 03:00:00 5.6 5 Sudeste 15 Sur 0 -- -- 94
2020-02-16 02:00:00 6.6 5 Sudoeste 13 Sur 0 -- -- 96
2020-02-16 01:00:00 6.5 8 Sur 16 Sudoeste 0 -- -- 92
2020-02-16 00:00:00 7.2 4 Sudoeste 13 Sur 0 -- -- 92
2020-02-15 23:00:00 6.7 7 Sur 12 Sur 0 -- -- 89
2020-02-15 22:00:00 7.8 8 Sur 12 Sur 0 -- -- 88
2020-02-15 21:00:00 9 7 Sur 10 Sur 0 -- -- 87
2020-02-15 20:00:00 10.5 5 Sudoeste 12 Oeste 0 -- -- 79
2020-02-15 19:00:00 12.4 10 Oeste 24 Oeste 0 -- -- 72
2020-02-15 18:00:00 14.5 10 Oeste 24 Sudoeste 0 -- -- 66
2020-02-15 17:00:00 14.6 14 Sudoeste 27 Sudoeste 0 -- -- 64
2020-02-15 16:00:00 15.1 15 Sudoeste 24 Oeste 0 -- -- 64
2020-02-15 15:00:00 14.1 13 Sudoeste 22 Sudoeste 0 -- -- 69
2020-02-15 14:00:00 12.9 11 Sudoeste 19 Sudoeste 0 -- -- 75
2020-02-15 13:00:00 12 10 Sudoeste 21 Sudoeste 0 -- -- 81
2020-02-15 12:00:00 11.3 13 Sur 22 Sur 0 -- -- 83
2020-02-15 11:00:00 8.4 8 Sur 17 Sur 0 -- -- 98
2020-02-15 10:00:00 7.3 6 Sudoeste 12 Sudoeste 0 -- -- 99
2020-02-15 09:00:00 4.4 8 Sur 12 Sudeste 0 -- -- 99
2020-02-15 08:00:00 3.5 6 Sur 9 Sur 0 -- -- 99
2020-02-15 07:00:00 3.9 8 Sur 12 Sudeste 0 -- -- 98
2020-02-15 06:00:00 3.5 6 Sur 9 Sur 0 -- -- 97
2020-02-15 05:00:00 4.7 7 Sur 12 Sur 0 -- -- 98
2020-02-15 04:00:00 4.2 2 Sur 6 Sur 0 -- -- 97
2020-02-15 03:00:00 3.8 0 Calma 8 Sur 0 -- -- 95
2020-02-15 02:00:00 5.1 8 Sur 10 Sur 0 -- -- 95
2020-02-15 01:00:00 5.7 5 Sudeste 11 Sudeste 0 -- -- 93
2020-02-15 00:00:00 6.2 2 Sudeste 11 Sudeste 0 -- -- 91
2020-02-14 23:00:00 6.2 6 Sudeste 9 Este 0 -- -- 94
2020-02-14 22:00:00 5.8 8 Este 9 Este 0 -- -- 92
2020-02-14 21:00:00 6.7 0 Calma 3 Noroeste 0 -- -- 88
2020-02-14 20:00:00 8.7 0 Calma 5 Norte 0 -- -- 83
2020-02-14 19:00:00 11 5 Norte 11 Noroeste 0 -- -- 77
2020-02-14 18:00:00 13.3 10 Noroeste 17 Noroeste 0 -- -- 71
2020-02-14 17:00:00 14.1 5 Noroeste 15 Oeste 0 -- -- 66
2020-02-14 16:00:00 14.2 3 Sudoeste 9 Sudoeste 0 -- -- 65
2020-02-14 15:00:00 12.5 4 Nordeste 11 Sudeste 0 -- -- 73
2020-02-14 14:00:00 11.6 5 Este 11 Este 0 -- -- 75
2020-02-14 13:00:00 10.5 0 Calma 9 Este 0 -- -- 80
2020-02-14 12:00:00 9 3 Sudeste 7 Sudeste 0 -- -- 99
2020-02-14 11:00:00 6.3 3 Este 6 Este 0 -- -- 99
2020-02-14 10:00:00 3.8 0 Calma 10 Sur 0 -- -- 100
2020-02-14 09:00:00 2.1 4 Sur 6 Sudeste 0 -- -- 99
2020-02-14 08:00:00 1.7 4 Sur 6 Sudeste 0 -- -- 99
2020-02-14 07:00:00 2.8 0 Calma 4 Sur 0 -- -- 98
2020-02-14 06:00:00 3.9 2 Sudeste 4 Sur 0 -- -- 98
2020-02-14 05:00:00 4.3 2 Sur 5 Sur 0 -- -- 98
2020-02-14 04:00:00 3.6 5 Sur 9 Sur 0 -- -- 99
2020-02-14 03:00:00 3.3 0 Calma 7 Sudoeste 0 -- -- 98
2020-02-14 02:00:00 4.6 6 Sur 12 Sur 0 -- -- 98
2020-02-14 01:00:00 3 0 Calma 2 Sudoeste 0 -- -- 97
2020-02-14 00:00:00 4.4 0 Calma 4 Oeste 0 -- -- 95
2020-02-13 23:00:00 6.3 2 Sudoeste 9 Noroeste 0 -- -- 92
2020-02-13 22:00:00 8.2 6 Oeste 9 Oeste 0 -- -- 92
2020-02-13 21:00:00 8.7 6 Oeste 9 Oeste 0 -- -- 87
2020-02-13 20:00:00 9.8 4 Oeste 9 Oeste 0 -- -- 82
2020-02-13 19:00:00 10.5 4 Oeste 20 Oeste 0 -- -- 81
2020-02-13 18:00:00 11.2 9 Noroeste 17 Noroeste 0 -- -- 85
2020-02-13 17:00:00 11.7 14 Noroeste 24 Oeste 0 -- -- 82
2020-02-13 16:00:00 11.9 13 Oeste 28 Oeste 0 -- -- 81
2020-02-13 15:00:00 11.8 11 Oeste 28 Sudoeste 0 -- -- 84
2020-02-13 14:00:00 12.2 12 Sudoeste 22 Sudoeste 0 -- -- 76
2020-02-13 13:00:00 11.9 13 Sudoeste 23 Oeste 0 -- -- 78
2020-02-13 12:00:00 10 9 Sudoeste 22 Sudoeste 0 -- -- 86
2020-02-13 11:00:00 9.9 10 Oeste 20 Sudoeste 0 -- -- 86
2020-02-13 10:00:00 8.8 9 Sudoeste 17 Oeste 0 -- -- 92
2020-02-13 09:00:00 8.1 12 Oeste 19 Oeste 0 -- -- 94
2020-02-13 08:00:00 8.4 12 Oeste 18 Oeste 0 -- -- 93
2020-02-13 07:00:00 8.7 8 Sudoeste 15 Oeste 0 -- -- 94
2020-02-13 06:00:00 8.8 9 Oeste 15 Sudoeste 0 -- -- 95
2020-02-13 05:00:00 8.9 10 Sudoeste 17 Sudoeste 0 -- -- 95
2020-02-13 04:00:00 9 10 Sudoeste 18 Sudoeste 0 -- -- 95
2020-02-13 03:00:00 9.1 10 Sudoeste 18 Sudoeste 0 -- -- 95
2020-02-13 02:00:00 9.2 9 Sudoeste 18 Sudoeste 0 -- -- 96
2020-02-13 01:00:00 9.3 9 Sudoeste 18 Sudoeste 0 -- -- 97
2020-02-13 00:00:00 9.2 11 Sudoeste 19 Sudoeste 0 -- -- 96
2020-02-12 23:00:00 10.1 11 Sudoeste 18 Sudoeste 0 -- -- 93
2020-02-12 22:00:00 10.4 10 Sudoeste 14 Sudoeste 0 -- -- 93
2020-02-12 21:00:00 11.1 6 Sudoeste 12 Oeste 0 -- -- 90
2020-02-12 20:00:00 10.3 0 Calma 4 Sudoeste 0 -- -- 88
2020-02-12 19:00:00 12.3 0 Calma 5 Nordeste 0 -- -- 85
2020-02-12 18:00:00 12.9 4 Norte 8 Norte 0 -- -- 82
2020-02-12 17:00:00 12.9 5 Norte 13 Norte 0 -- -- 83
2020-02-12 16:00:00 13.6 4 Norte 10 Norte 0 -- -- 77
2020-02-12 15:00:00 14.3 7 Norte 12 Noroeste 0 -- -- 75
2020-02-12 14:00:00 14.1 2 Sur 10 Este 0 -- -- 74
2020-02-12 13:00:00 13.3 4 Este 9 Este 0 -- -- 75
2020-02-12 12:00:00 12.1 2 Sudeste 10 Sudeste 0 -- -- 85
2020-02-12 11:00:00 10 5 Sudeste 8 Sudeste 0 -- -- 95
2020-02-12 10:00:00 7.7 4 Sudeste 6 Sudeste 0 -- -- 99
2020-02-12 09:00:00 5.9 0 Calma 5 Sudeste 0 -- -- 98
2020-02-12 08:00:00 5.4 4 Sudeste 8 Sur 0 -- -- 99
2020-02-12 07:00:00 5.1 3 Sur 4 Sur 0 -- -- 98
2020-02-12 06:00:00 5.1 2 Sudeste 3 Sudeste -- -- -- 97
2020-02-12 05:00:00 5.6 0 Calma 3 Sudoeste -- -- -- 96
2020-02-12 04:00:00 5.8 0 Calma 4 Sur -- -- -- 96
2020-02-12 03:00:00 6.9 5 Sur 8 Sur -- -- -- 95
2020-02-12 02:00:00 6.9 3 Sur 5 Sur -- -- -- 95
2020-02-12 01:00:00 7.3 3 Sur 8 Sur -- -- -- 94
2020-02-12 00:00:00 8.3 0 Calma 4 Noroeste -- -- -- 93
2020-02-11 23:00:00 8.7 0 Calma 3 Este -- -- -- 92
2020-02-11 22:00:00 8.8 0 Calma 3 Norte -- -- -- 89
2020-02-11 21:00:00 9.2 0 Calma 2 Noroeste -- -- -- 89
2020-02-11 20:00:00 10.1 0 Calma 3 Norte -- -- -- 85
2020-02-11 19:00:00 11.8 2 Norte 3 Oeste -- -- -- 82
2020-02-11 18:00:00 13.1 3 Noroeste 5 Sur -- -- -- 72
2020-02-11 17:00:00 13 0 Calma 7 Noroeste -- -- -- 74
2020-02-11 16:00:00 12.5 3 Norte 10 Norte -- -- -- 79
2020-02-11 15:00:00 11.8 5 Noroeste 10 Noroeste -- -- -- 84
2020-02-11 14:00:00 10.7 8 Noroeste 13 Noroeste -- -- -- 88
2020-02-11 13:00:00 9.8 4 Noroeste 8 Noroeste -- -- -- 97
2020-02-11 12:00:00 8.6 4 Sur 9 Noroeste -- -- -- 99
2020-02-11 11:00:00 7.3 5 Noroeste 9 Norte -- -- -- 99
2020-02-11 10:00:00 6.5 3 Sudoeste 6 Oeste -- -- -- 99
2020-02-11 09:00:00 6.1 2 Oeste 6 Noroeste -- -- -- 99
2020-02-11 08:00:00 5.4 0 Calma 6 Sur -- -- -- 99
2020-02-11 07:00:00 4.9 3 Sur 5 Sur -- -- -- 99
2020-02-11 06:00:00 5.2 3 Sur 5 Sur -- -- -- 98
2020-02-11 05:00:00 6.6 0 Calma 4 Sur -- -- -- 98
2020-02-11 04:00:00 8 3 Sur 6 Sur -- -- -- 98
2020-02-11 03:00:00 8.3 0 Calma 6 Oeste -- -- -- 98
2020-02-11 02:00:00 6.2 0 Calma 7 Sur -- -- -- 97
2020-02-11 01:00:00 8 3 Sur 9 Sur -- -- -- 97
2020-02-11 00:00:00 8.4 4 Sur 9 Sudoeste -- -- -- 97
2020-02-10 23:00:00 8.2 5 Sudoeste 10 Sudoeste -- -- -- 96
2020-02-10 22:00:00 8.9 6 Sudoeste 9 Oeste -- -- -- 95
2020-02-10 21:00:00 9.8 4 Oeste 12 Oeste -- -- -- 93
2020-02-10 20:00:00 9.9 7 Oeste 12 Oeste -- -- -- 90
2020-02-10 19:00:00 11 9 Oeste 22 Oeste -- -- -- 87
2020-02-10 18:00:00 12.5 14 Oeste 23 Oeste -- -- -- 83
2020-02-10 17:00:00 12.4 15 Oeste 29 Noroeste -- -- -- 85
2020-02-10 16:00:00 12.8 15 Noroeste 23 Oeste -- -- -- 86
2020-02-10 15:00:00 12.2 13 Oeste 26 Oeste -- -- -- 87
2020-02-10 14:00:00 12.1 15 Sudoeste 24 Sudoeste -- -- -- 86
2020-02-10 13:00:00 12.1 15 Oeste 23 Oeste -- -- -- 85
2020-02-10 12:00:00 11.8 15 Oeste 23 Oeste -- -- -- 86
2020-02-10 11:00:00 10.8 10 Oeste 21 Sudoeste -- -- -- 93
2020-02-10 10:00:00 10 10 Oeste 16 Oeste -- -- -- 97
2020-02-10 09:00:00 9.7 8 Oeste 17 Sudoeste -- -- -- 97
2020-02-10 08:00:00 9.7 11 Sudoeste 18 Sudoeste -- -- -- 96
2020-02-10 07:00:00 9.8 10 Sudoeste 20 Sudoeste -- -- -- 94
2020-02-10 06:00:00 9.7 10 Sudoeste 23 Sudoeste -- -- -- 93
2020-02-10 05:00:00 9.6 10 Oeste 21 Sudoeste -- -- -- 90
2020-02-10 04:00:00 9.8 9 Sudoeste 16 Sudoeste -- -- -- 88
2020-02-10 03:00:00 9.7 8 Sudoeste 18 Sudoeste -- -- -- 88
2020-02-10 02:00:00 9.8 9 Sudoeste 18 Sudoeste -- -- -- 87
2020-02-10 01:00:00 9.8 11 Sudoeste 17 Sudoeste -- -- -- 87
2020-02-10 00:00:00 9.8 7 Sudoeste 17 Sudoeste -- -- -- 87
2020-02-09 23:00:00 9.8 9 Sudoeste 15 Sudoeste -- -- -- 88
2020-02-09 22:00:00 9.8 10 Sudoeste 18 Sudoeste -- -- -- 86
2020-02-09 21:00:00 10.1 11 Sudoeste 19 Sudoeste -- -- -- 85
2020-02-09 20:00:00 10.4 10 Sudoeste 18 Sudoeste -- -- -- 84
2020-02-09 19:00:00 10.7 12 Sudoeste 24 Sudoeste -- -- -- 82
2020-02-09 18:00:00 11.1 14 Sudoeste 24 Sudoeste -- -- -- 79
2020-02-09 17:00:00 11.5 13 Sudoeste 24 Sudoeste -- -- -- 78
2020-02-09 16:00:00 12.2 15 Sudoeste 26 Sudoeste -- -- -- 76
2020-02-09 15:00:00 12.2 15 Oeste 23 Sudoeste -- -- -- 75
2020-02-09 14:00:00 12 14 Sudoeste 24 Sudoeste -- -- -- 74
2020-02-09 13:00:00 11.7 15 Sudoeste 25 Sudoeste -- -- -- 76
2020-02-09 12:00:00 10.6 13 Sudoeste 24 Sudoeste -- -- -- 86
2020-02-09 11:00:00 9.2 12 Sudoeste 20 Sudoeste -- -- -- 93
2020-02-09 10:00:00 8.7 11 Sudoeste 15 Sudoeste -- -- -- 97
2020-02-09 09:00:00 7.6 5 Sur 9 Sur -- -- -- 97
2020-02-09 08:00:00 7.5 3 Sur 12 Oeste -- -- -- 96
2020-02-09 07:00:00 8.3 8 Oeste 12 Oeste -- -- -- 97
2020-02-09 06:00:00 8.5 5 Oeste 10 Sudoeste -- -- -- 96
2020-02-09 05:00:00 8.3 6 Sudoeste 19 Sudoeste -- -- -- 95
2020-02-09 04:00:00 8.7 7 Sudoeste 17 Sudoeste -- -- -- 92
2020-02-09 03:00:00 8.6 12 Sudoeste 22 Sudoeste -- -- -- 93
2020-02-09 02:00:00 8.3 3 Sur 11 Sudoeste -- -- -- 94
2020-02-09 01:00:00 9 6 Sur 18 Sudoeste -- -- -- 92
2020-02-09 00:00:00 9 7 Sur 12 Sur -- -- -- 93
2020-02-08 23:00:00 8.4 3 Sur 9 Sur -- -- -- 91
2020-02-08 22:00:00 9 3 Sur 5 Oeste -- -- -- 90
2020-02-08 21:00:00 8.6 2 Oeste 4 Oeste -- -- -- 90
2020-02-08 20:00:00 7.6 0 Calma 9 Oeste -- -- -- 85
2020-02-08 19:00:00 9.7 8 Oeste 14 Oeste -- -- -- 80
2020-02-08 18:00:00 11.5 11 Oeste 21 Oeste -- -- -- 66
2020-02-08 17:00:00 12.7 13 Oeste 28 Oeste -- -- -- 65
2020-02-08 16:00:00 12.7 18 Oeste 29 Oeste -- -- -- 66
2020-02-08 15:00:00 12.2 17 Oeste 27 Oeste -- -- -- 66
2020-02-08 14:00:00 12 16 Oeste 24 Sudoeste -- -- -- 74
2020-02-08 13:00:00 11.6 12 Oeste 20 Sudoeste -- -- -- 81
2020-02-08 12:00:00 10.4 10 Sudoeste 21 Oeste -- -- -- 88
2020-02-08 11:00:00 8.8 9 Noroeste 17 Oeste -- -- -- 96
2020-02-08 10:00:00 8.5 8 Oeste 16 Oeste -- -- -- 96
2020-02-08 09:00:00 8.3 9 Oeste 15 Oeste -- -- -- 96
2020-02-08 08:00:00 8.3 10 Oeste 19 Sudoeste -- -- -- 95
2020-02-08 07:00:00 8.6 15 Sudoeste 24 Sudoeste -- -- -- 94
2020-02-08 06:00:00 8.5 7 Sudoeste 14 Sudoeste -- -- -- 93
2020-02-08 05:00:00 8 4 Sudoeste 9 Sudoeste -- -- -- 93
2020-02-08 04:00:00 7.7 6 Sur 12 Sur -- -- -- 94
2020-02-08 03:00:00 7.6 5 Sur 9 Sudeste -- -- -- 93
2020-02-08 02:00:00 7.8 3 Sudoeste 10 Sur -- -- -- 91
2020-02-08 01:00:00 7.3 8 Sur 10 Sur -- -- -- 90
2020-02-08 00:00:00 8.7 6 Sur 12 Sudoeste -- -- -- 88
2020-02-07 23:00:00 9.4 6 Sudoeste 12 Sur -- -- -- 85
2020-02-07 22:00:00 9.6 6 Sudoeste 13 Sudoeste -- -- -- 84
2020-02-07 21:00:00 9.9 10 Sudoeste 15 Sudoeste -- -- -- 81
2020-02-07 20:00:00 9.5 6 Sudoeste 12 Sudoeste -- -- -- 82
2020-02-07 19:00:00 11.1 9 Sudoeste 20 Sudoeste -- -- -- 76
2020-02-07 18:00:00 12.2 10 Sudoeste 20 Oeste -- -- -- 71
2020-02-07 17:00:00 13.1 14 Sudoeste 27 Sudoeste -- -- -- 67
2020-02-07 16:00:00 13.9 11 Sudoeste 24 Oeste -- -- -- 63
2020-02-07 15:00:00 13.3 9 Oeste 23 Sur -- -- -- 66
2020-02-07 14:00:00 13 10 Sur 22 Sudoeste -- -- -- 67
2020-02-07 13:00:00 12 11 Sur 20 Sur -- -- -- 76
2020-02-07 12:00:00 10.3 11 Sur 18 Sur -- -- -- 85
2020-02-07 11:00:00 7.8 6 Sur 12 Sur -- -- -- 92
2020-02-07 10:00:00 6.6 6 Sur 10 Sur -- -- -- 94
2020-02-07 09:00:00 5.5 6 Sur 10 Sur -- -- -- 95
2020-02-07 08:00:00 4.2 2 Sur 3 Sur -- -- -- 95
2020-02-07 07:00:00 4.9 0 Calma 4 Este -- -- -- 93
2020-02-07 06:00:00 4.9 0 Calma 3 Sudeste -- -- -- 95
2020-02-07 05:00:00 4 0 Calma 4 Noroeste -- -- -- 93
2020-02-07 04:00:00 5.2 0 Calma 9 Sur -- -- -- 91
2020-02-07 03:00:00 5.9 7 Sur 11 Sur -- -- -- 88
2020-02-07 02:00:00 6.7 8 Sur 11 Sur -- -- -- 89
2020-02-07 01:00:00 5.7 8 Sur 11 Sur -- -- -- 89
2020-02-07 00:00:00 5.5 7 Sur 12 Sur -- -- -- 89
2020-02-06 23:00:00 5.9 5 Sudeste 12 Sur -- -- -- 87
2020-02-06 22:00:00 7 5 Sur 16 Sur -- -- -- 84
2020-02-06 21:00:00 7.5 10 Sur 14 Sur -- -- -- 84
2020-02-06 20:00:00 8.2 4 Sur 15 Sudoeste -- -- -- 79
2020-02-06 19:00:00 9.8 5 Sur 25 Sur -- -- -- 71
2020-02-06 18:00:00 12.1 17 Sur 25 Sur -- -- -- 65
2020-02-06 17:00:00 13.3 14 Sudoeste 24 Sudoeste -- -- -- 63
2020-02-06 16:00:00 13.8 15 Sudoeste 25 Sudoeste -- -- -- 63
2020-02-06 15:00:00 14.2 13 Sudoeste 26 Sudoeste -- -- -- 65
2020-02-06 14:00:00 13.8 15 Sudoeste 26 Sudoeste -- -- -- 64
2020-02-06 13:00:00 12.5 12 Sur 25 Sur -- -- -- 66
2020-02-06 12:00:00 11 6 Sur 13 Sur -- -- -- 66
2020-02-06 11:00:00 7.9 0 Calma 7 Sudeste -- -- -- 77
2020-02-06 10:00:00 4.6 4 Sudeste 11 Sudeste -- -- -- 83
2020-02-06 09:00:00 2.2 5 Sudeste 10 Sudeste -- -- -- 91
2020-02-06 08:00:00 1.1 5 Sudeste 10 Este -- -- -- 92
2020-02-06 07:00:00 1.2 7 Sudeste 13 Este -- -- -- 92
2020-02-06 06:00:00 1.5 9 Este 14 Este -- -- -- 91
2020-02-06 05:00:00 1.3 5 Este 8 Este -- -- -- 90
2020-02-06 04:00:00 1.6 5 Este 8 Este -- -- -- 91
2020-02-06 03:00:00 1.7 6 Este 9 Este -- -- -- 89
2020-02-06 02:00:00 2.9 5 Sudeste 9 Sudeste -- -- -- 86
2020-02-06 01:00:00 3.6 6 Sudeste 8 Sudeste -- -- -- 85
2020-02-06 00:00:00 4.7 5 Sudeste 15 Este -- -- -- 81
2020-02-05 23:00:00 5.3 12 Este 19 Este -- -- -- 81
2020-02-05 22:00:00 5.5 14 Este 17 Este -- -- -- 80
2020-02-05 21:00:00 6 8 Este 12 Este -- -- -- 79
2020-02-05 20:00:00 6.2 5 Este 14 Este -- -- -- 75
2020-02-05 19:00:00 9 10 Este 18 Este -- -- -- 65
2020-02-05 18:00:00 10.9 12 Este 22 Este -- -- -- 57
2020-02-05 17:00:00 11.8 13 Este 22 Nordeste -- -- -- 54
2020-02-05 16:00:00 11.7 16 Nordeste 24 Nordeste -- -- -- 52
2020-02-05 15:00:00 11.6 13 Este 26 Nordeste -- -- -- 47
2020-02-05 14:00:00 10.6 16 Este 30 Nordeste -- -- -- 53
2020-02-05 13:00:00 9.5 18 Nordeste 29 Este -- -- -- 55
2020-02-05 12:00:00 7.8 18 Este 30 Nordeste -- -- -- 62
2020-02-05 11:00:00 5.6 18 Este 37 Este -- -- -- 73
2020-02-05 10:00:00 3.9 19 Este 33 Este -- -- -- 81
2020-02-05 09:00:00 3 17 Este 31 Este -- -- -- 87
2020-02-05 08:00:00 3.6 16 Este 26 Este -- -- -- 83
2020-02-05 07:00:00 3.8 12 Este 19 Este -- -- -- 81
2020-02-05 06:00:00 5 13 Este 27 Este -- -- -- 72
2020-02-05 05:00:00 5.6 14 Este 27 Este -- -- -- 77
2020-02-05 04:00:00 6.2 13 Este 26 Nordeste -- -- -- 84
2020-02-05 03:00:00 7.2 14 Este 25 Este -- -- -- 83
2020-02-05 02:00:00 7.3 12 Este 21 Este -- -- -- 89
2020-02-05 01:00:00 7.4 10 Este 19 Este -- -- -- 92
2020-02-05 00:00:00 7 9 Este 22 Nordeste -- -- -- 94
2020-02-04 23:00:00 8.2 13 Este 21 Este -- -- -- 91
2020-02-04 22:00:00 8.5 6 Este 15 Este -- -- -- 87
2020-02-04 21:00:00 10 10 Este 18 Nordeste -- -- -- 85
2020-02-04 20:00:00 10.7 8 Nordeste 14 Nordeste -- -- -- 81
2020-02-04 19:00:00 12.7 6 Nordeste 13 Nordeste -- -- -- 73
2020-02-04 18:00:00 15 6 Norte 14 Norte -- -- -- 74
2020-02-04 12:00:00 -- -- -- -- -- -- -- -- --
2020-02-04 11:00:00 -- -- -- -- -- -- -- -- --
2020-02-04 10:00:00 7.7 10 Sur 13 Sur -- -- -- 98
2020-02-04 09:00:00 4.1 6 Sudeste 10 Este -- -- -- 98
2020-02-04 08:00:00 3.8 6 Este 8 Este -- -- -- 98
2020-02-04 07:00:00 4.4 6 Sur 9 Sur -- -- -- 97
2020-02-04 06:00:00 6.3 5 Sur 8 Sur -- -- -- 95
2020-02-04 05:00:00 5.1 4 Sur 8 Sur -- -- -- 95
2020-02-04 04:00:00 6.9 6 Sudoeste 11 Sur -- -- -- 94
2020-02-04 03:00:00 7.8 8 Sudoeste 10 Sudoeste -- -- -- 96
2020-02-04 02:00:00 6.9 2 Sur 9 Sur -- -- -- 91
2020-02-04 01:00:00 8.2 8 Sur 13 Sur -- -- -- 87
2020-02-04 00:00:00 8.9 3 Sur 13 Sur -- -- -- 85
2020-02-03 23:00:00 9.5 8 Sur 15 Sur -- -- -- 82
2020-02-03 22:00:00 10.1 9 Sur 11 Sur -- -- -- 80
2020-02-03 21:00:00 10.7 8 Sur 13 Sur -- -- -- 78
2020-02-03 20:00:00 13.6 7 Sudoeste 12 Sur -- -- -- 68
2020-02-03 19:00:00 15.3 6 Sudoeste 15 Sudoeste -- -- -- 61
2020-02-03 18:00:00 18.5 12 Sudoeste 25 Sudoeste -- -- -- 51
2020-02-03 17:00:00 19.5 13 Sudoeste 28 Sudoeste -- -- -- 47
2020-02-03 16:00:00 19.4 11 Sudoeste 21 Sudoeste -- -- -- 57
2020-02-03 15:00:00 17.6 8 Noroeste 17 Oeste -- -- -- 70
2020-02-03 14:00:00 16.6 9 Noroeste 15 Oeste -- -- -- 71
2020-02-03 13:00:00 15.5 10 Oeste 17 Oeste -- -- -- 74
2020-02-03 12:00:00 14.8 9 Sur 14 Sur -- -- -- 71
2020-02-03 11:00:00 11.5 4 Sur 7 Sur -- -- -- 83
2020-02-03 10:00:00 7 0 Calma 12 Sur -- -- -- 92
2020-02-03 09:00:00 4 6 Sudeste 7 Sudeste -- -- -- 92
2020-02-03 08:00:00 5.2 5 Este 11 Sudeste -- -- -- 96
2020-02-03 07:00:00 4.7 5 Sur 10 Sur -- -- -- 95
2020-02-03 06:00:00 6.1 5 Sudeste 11 Sudeste -- -- -- 93
2020-02-03 05:00:00 6.6 7 Sudeste 8 Sudeste -- -- -- 92
2020-02-03 04:00:00 6.5 5 Sudeste 11 Este -- -- -- 98
2020-02-03 03:00:00 7.8 5 Sudeste 9 Sur -- -- -- 97
2020-02-03 02:00:00 8.9 5 Sudeste 14 Sur -- -- -- 97
2020-02-03 01:00:00 9.3 9 Sur 12 Sur -- -- -- 97
2020-02-03 00:00:00 9.7 10 Sur 14 Sur -- -- -- 96
2020-02-02 23:00:00 9.8 9 Sur 16 Sur -- -- -- 95
2020-02-02 22:00:00 10.1 12 Sur 14 Sur -- -- -- 94
2020-02-02 21:00:00 10.3 9 Sur 12 Sur -- -- -- 92
2020-02-02 20:00:00 12 10 Sur 14 Sudoeste -- -- -- 89
2020-02-02 19:00:00 13.4 5 Sur 13 Sudoeste -- -- -- 83
2020-02-02 18:00:00 15.6 9 Sudoeste 19 Sudoeste -- -- -- 76
2020-02-02 17:00:00 16.8 10 Sudoeste 17 Sudoeste -- -- -- 69
2020-02-02 16:00:00 17.1 9 Sudoeste 16 Sudoeste -- -- -- 68
2020-02-02 15:00:00 16.6 8 Sur 18 Sudoeste -- -- -- 77
2020-02-02 14:00:00 14.5 8 Sudoeste 26 Sudoeste -- -- -- 83
2020-02-02 13:00:00 14.4 13 Sudoeste 24 Sudoeste -- -- -- 83
2020-02-02 12:00:00 12.7 17 Sur 26 Sur -- -- -- 89
2020-02-02 11:00:00 12.3 13 Sur 23 Sur -- -- -- 93
2020-02-02 10:00:00 10.6 6 Sur 12 Sur -- -- -- 97
2020-02-02 09:00:00 9.9 9 Sur 13 Sur -- -- -- 97
2020-02-02 08:00:00 10 9 Sur 14 Sur -- -- -- 96
2020-02-02 07:00:00 10.6 8 Sur 15 Sur -- -- -- 95
2020-02-02 06:00:00 11.2 8 Sur 13 Sur -- -- -- 95
2020-02-02 05:00:00 11.6 9 Sur 18 Sur -- -- -- 94
2020-02-02 04:00:00 11.5 9 Sur 16 Sur -- -- -- 94
2020-02-02 03:00:00 11.6 11 Sur 17 Sur -- -- -- 94
2020-02-02 02:00:00 11.6 9 Sur 18 Sur -- -- -- 94
2020-02-02 01:00:00 11.6 10 Sur 16 Sur -- -- -- 94
2020-02-02 00:00:00 11.7 10 Sur 16 Sudoeste -- -- -- 94
2020-02-01 23:00:00 11.5 6 Sur 17 Sudoeste -- -- -- 94
2020-02-01 22:00:00 11.5 5 Sur 8 Sur -- -- -- 95
2020-02-01 21:00:00 12 4 Oeste 14 Sudoeste -- -- -- 93
2020-02-01 20:00:00 12.8 6 Sudoeste 14 Sudoeste -- -- -- 91
2020-02-01 19:00:00 13.5 8 Sudoeste 20 Oeste -- -- -- 88
2020-02-01 18:00:00 14.1 11 Sudoeste 22 Sudoeste -- -- -- 85
2020-02-01 17:00:00 14.5 11 Sudoeste 22 Sudoeste -- -- -- 83
2020-02-01 16:00:00 14.9 10 Sudoeste 22 Sudoeste -- -- -- 81
2020-02-01 15:00:00 14.4 8 Oeste 14 Sudoeste -- -- -- 85
2020-02-01 14:00:00 13.8 8 Oeste 27 Sudoeste -- -- -- 86
2020-02-01 13:00:00 14.2 18 Sudoeste 26 Sudoeste -- -- -- 84
2020-02-01 12:00:00 12.3 12 Sudoeste 18 Sudoeste -- -- -- 94
2020-02-01 11:00:00 11.8 8 Sudoeste 19 Sudoeste -- -- -- 95
2020-02-01 10:00:00 11.3 14 Sudoeste 21 Sudoeste -- -- -- 96
2020-02-01 09:00:00 11 12 Sudoeste 22 Sudoeste -- -- -- 96
2020-02-01 08:00:00 11.2 12 Sudoeste 24 Sudoeste -- -- -- 96
2020-02-01 07:00:00 11.6 10 Sudoeste 28 Sudoeste -- -- -- 94
2020-02-01 06:00:00 11.8 12 Oeste 33 Oeste -- -- -- 93
2020-02-01 05:00:00 11.9 14 Oeste 31 Sudoeste -- -- -- 94
2020-02-01 04:00:00 11.9 19 Oeste 36 Sudoeste -- -- -- 94
2020-02-01 03:00:00 12 20 Oeste 30 Sudoeste -- -- -- 94
2020-02-01 02:00:00 12 14 Sudoeste 35 Sudoeste -- -- -- 95
2020-02-01 01:00:00 12.1 12 Sudoeste 27 Sudoeste -- -- -- 98
2020-02-01 00:00:00 11.6 12 Sur 23 Sur -- -- -- 97
2020-01-31 23:00:00 11.3 12 Sur 22 Sur -- -- -- 97
2020-01-31 22:00:00 11.2 13 Sur 24 Sur -- -- -- 96
2020-01-31 21:00:00 11.5 13 Sur 22 Sur -- -- -- 93
2020-01-31 20:00:00 11.9 13 Sur 22 Sudoeste -- -- -- 91
2020-01-31 19:00:00 12.4 13 Sudoeste 24 Sudoeste -- -- -- 88
2020-01-31 18:00:00 12.6 17 Sudoeste 27 Sudoeste -- -- -- 88
2020-01-31 17:00:00 12.8 14 Sudoeste 28 Sudoeste -- -- -- 87
2020-01-31 16:00:00 12.4 10 Sur 24 Sudoeste -- -- -- 91
2020-01-31 15:00:00 12.6 14 Sudoeste 30 Sudoeste -- -- -- 84
2020-01-31 14:00:00 12.8 12 Sudoeste 26 Sudoeste -- -- -- 82
2020-01-31 13:00:00 13.2 16 Sudoeste 28 Sudoeste -- -- -- 83
2020-01-31 12:00:00 11.5 14 Sudoeste 26 Sudoeste -- -- -- 90
2020-01-31 11:00:00 10.7 11 Sur 19 Sur -- -- -- 95
2020-01-31 10:00:00 10 8 Sur 13 Sur -- -- -- 96
2020-01-31 09:00:00 9.7 6 Sur 13 Sudoeste -- -- -- 97
2020-01-31 08:00:00 9.6 7 Sur 16 Sudoeste -- -- -- 97
2020-01-31 07:00:00 9.7 9 Sur 19 Sudoeste -- -- -- 97
2020-01-31 06:00:00 9.7 11 Sur 18 Sur -- -- -- 97
2020-01-31 05:00:00 9.8 12 Sur 19 Sur -- -- -- 97
2020-01-31 04:00:00 9.9 9 Sur 19 Sudoeste -- -- -- 97
2020-01-31 03:00:00 10.2 12 Sudoeste 20 Sur -- -- -- 96
2020-01-31 02:00:00 9.9 10 Sur 19 Sur -- -- -- 97
2020-01-31 01:00:00 9.8 11 Sudoeste 18 Sudoeste -- -- -- 97
2020-01-31 00:00:00 9.8 13 Sudoeste 22 Sudoeste -- -- -- 96
2020-01-30 23:00:00 9.9 11 Sudoeste 24 Sudoeste -- -- -- 95
2020-01-30 22:00:00 10 14 Sudoeste 25 Sur -- -- -- 92
2020-01-30 21:00:00 9.8 12 Sur 21 Sur -- -- -- 94
2020-01-30 20:00:00 9.8 13 Sudoeste 24 Sudoeste -- -- -- 92
2020-01-30 19:00:00 10 10 Sudoeste 26 Sudoeste -- -- -- 90
2020-01-30 18:00:00 10.1 18 Sudoeste 35 Sudoeste -- -- -- 90
2020-01-30 17:00:00 10.2 19 Sudoeste 36 Sudoeste -- -- -- 90
2020-01-30 16:00:00 10.3 19 Sudoeste 37 Sudoeste -- -- -- 89
2020-01-30 15:00:00 10.2 21 Sudoeste 39 Sur -- -- -- 88
2020-01-30 14:00:00 9.5 18 Sur 34 Sudoeste -- -- -- 91
2020-01-30 13:00:00 9.3 14 Sur 25 Sur -- -- -- 91
2020-01-30 12:00:00 8.7 15 Sur 26 Sur -- -- -- 94
2020-01-30 11:00:00 7.9 12 Sur 19 Sur -- -- -- 95
2020-01-30 10:00:00 7.9 13 Sur 26 Sur -- -- -- 91
2020-01-30 09:00:00 7.4 13 Sur 23 Sur -- -- -- 92
2020-01-30 08:00:00 7.5 13 Sur 22 Sur -- -- -- 90
2020-01-30 07:00:00 8 12 Sudoeste 24 Sudoeste -- -- -- 87
2020-01-30 06:00:00 8.1 14 Sudoeste 27 Sudoeste -- -- -- 86
2020-01-30 05:00:00 8.1 11 Sudoeste 28 Sur -- -- -- 87
2020-01-30 04:00:00 7.8 9 Sur 22 Sudoeste -- -- -- 92
2020-01-30 03:00:00 8.4 8 Sudoeste 17 Sudoeste -- -- -- 93
2020-01-30 02:00:00 8.6 11 Sur 22 Sudoeste -- -- -- 94
2020-01-30 01:00:00 8.6 10 Sur 20 Sur -- -- -- 93
2020-01-30 00:00:00 8.8 12 Sur 21 Sur -- -- -- 93
2020-01-29 23:00:00 8.9 9 Sur 18 Sudoeste -- -- -- 94
2020-01-29 22:00:00 9.2 8 Sudoeste 18 Sur -- -- -- 94
2020-01-29 21:00:00 9.5 9 Sur 25 Sudoeste -- -- -- 94
2020-01-29 20:00:00 9.9 6 Sudoeste 19 Sur -- -- -- 95
2020-01-29 19:00:00 10.2 12 Sudoeste 22 Sudoeste -- -- -- 93
2020-01-29 18:00:00 10.6 14 Sudoeste 24 Sudoeste -- -- -- 91
2020-01-29 17:00:00 10.9 15 Sudoeste 27 Sudoeste -- -- -- 90
2020-01-29 16:00:00 11.2 15 Sudoeste 30 Sudoeste -- -- -- 89
2020-01-29 15:00:00 11.5 18 Sudoeste 31 Sudoeste -- -- -- 87
2020-01-29 14:00:00 11.3 14 Sudoeste 29 Sudoeste -- -- -- 89
2020-01-29 13:00:00 10.9 15 Sudoeste 30 Sudoeste -- -- -- 93
2020-01-29 12:00:00 9.8 14 Sur 24 Sur -- -- -- 97
2020-01-29 11:00:00 9.1 11 Sur 23 Sur -- -- -- 96
2020-01-29 10:00:00 8.7 10 Sur 17 Sur -- -- -- 96
2020-01-29 09:00:00 8.5 10 Sur 17 Sur -- -- -- 96
2020-01-29 08:00:00 8.4 10 Sur 18 Sur -- -- -- 96
2020-01-29 07:00:00 8.3 10 Sur 16 Sur -- -- -- 96
2020-01-29 06:00:00 8.4 9 Sur 15 Sur -- -- -- 96
2020-01-29 05:00:00 8.7 10 Sur 14 Sur -- -- -- 95
2020-01-29 04:00:00 9.2 10 Sudoeste 15 Sudoeste -- -- -- 95
2020-01-29 03:00:00 9.1 8 Sudoeste 17 Oeste -- -- -- 95
2020-01-29 02:00:00 9.2 10 Sudoeste 19 Sudoeste -- -- -- 96
2020-01-29 01:00:00 9.7 10 Sudoeste 27 Oeste -- -- -- 92
2020-01-29 00:00:00 9.4 9 Sudoeste 26 Oeste -- -- -- 92
2020-01-28 23:00:00 10 15 Sudoeste 28 Sudoeste -- -- -- 92
2020-01-28 22:00:00 10.1 18 Oeste 32 Oeste -- -- -- 92
2020-01-28 21:00:00 10.2 19 Oeste 33 Oeste -- -- -- 93
2020-01-28 20:00:00 10.3 19 Sudoeste 32 Oeste -- -- -- 93
2020-01-28 19:00:00 10.5 23 Oeste 38 Oeste -- -- -- 92
2020-01-28 18:00:00 10.8 17 Sudoeste 31 Sudoeste -- -- -- 94
2020-01-28 17:00:00 10.9 14 Sudoeste 34 Sudoeste -- -- -- 92
2020-01-28 16:00:00 10.8 16 Sudoeste 32 Oeste -- -- -- 93
2020-01-28 15:00:00 10.6 18 Oeste 32 Oeste -- -- -- 93
2020-01-28 14:00:00 11.1 20 Oeste 35 Sudoeste -- -- -- 89
2020-01-28 13:00:00 10.7 19 Oeste 35 Sudoeste -- -- -- 95
2020-01-28 12:00:00 10.2 14 Sudoeste 23 Sudoeste -- -- -- 96
2020-01-28 11:00:00 9.9 12 Sudoeste 23 Sudoeste -- -- -- 96
2020-01-28 10:00:00 9.5 12 Sudoeste 21 Sur -- -- -- 97
2020-01-28 09:00:00 9.2 10 Sur 18 Sur -- -- -- 97
2020-01-28 08:00:00 9.1 8 Sur 19 Sudoeste -- -- -- 97
2020-01-28 07:00:00 9.2 10 Sudoeste 21 Sudoeste -- -- -- 96
2020-01-28 06:00:00 9.1 14 Sudoeste 24 Sudoeste -- -- -- 96
2020-01-28 05:00:00 9.2 16 Sudoeste 32 Sudoeste -- -- -- 95
2020-01-28 04:00:00 9.1 19 Sudoeste 32 Sudoeste -- -- -- 95
2020-01-28 03:00:00 9 17 Sudoeste 29 Sur -- -- -- 93
2020-01-28 02:00:00 8.7 15 Sudoeste 30 Sudoeste -- -- -- 93
2020-01-28 01:00:00 8.6 18 Sudoeste 32 Sudoeste -- -- -- 92
2020-01-28 00:00:00 8.6 17 Sudoeste 29 Sudoeste -- -- -- 93
2020-01-27 23:00:00 8.8 19 Sudoeste 31 Sudoeste -- -- -- 92
2020-01-27 22:00:00 8.9 18 Sudoeste 31 Sudoeste -- -- -- 91
2020-01-27 21:00:00 9.1 17 Sudoeste 33 Sudoeste -- -- -- 92
2020-01-27 20:00:00 8.9 16 Sudoeste 28 Sudoeste -- -- -- 92
2020-01-27 19:00:00 9 9 Oeste 26 Sudoeste -- -- -- 92
2020-01-27 18:00:00 9.3 17 Oeste 35 Sudoeste -- -- -- 92
2020-01-27 17:00:00 9.1 16 Sudoeste 33 Sudoeste -- -- -- 92
2020-01-27 16:00:00 8.6 22 Sudoeste 37 Sudoeste -- -- -- 93
2020-01-27 15:00:00 8.6 22 Sudoeste 42 Sudoeste -- -- -- 91
2020-01-27 14:00:00 8.8 24 Sudoeste 42 Sudoeste -- -- -- 91
2020-01-27 13:00:00 8.9 24 Sudoeste 44 Sudoeste -- -- -- 89
2020-01-27 12:00:00 8.5 21 Sudoeste 45 Sudoeste -- -- -- 89
2020-01-27 11:00:00 7.7 21 Sudoeste 40 Sudoeste -- -- -- 93
2020-01-27 10:00:00 7.1 19 Sur 35 Sur -- -- -- 93
2020-01-27 09:00:00 7.1 20 Sur 36 Sur -- -- -- 91
2020-01-27 08:00:00 6.6 15 Sur 30 Sudoeste -- -- -- 92
2020-01-27 07:00:00 6.3 18 Sur 37 Sur -- -- -- 91
2020-01-27 06:00:00 6.1 16 Sur 28 Sudoeste -- -- -- 91
2020-01-27 05:00:00 6.2 18 Sur 29 Sur -- -- -- 91
2020-01-27 04:00:00 5.4 14 Sur 25 Sur -- -- -- 93
2020-01-27 03:00:00 5.3 13 Sur 22 Sudoeste -- -- -- 92
2020-01-27 02:00:00 5 14 Sur 22 Sur -- -- -- 94
2020-01-27 01:00:00 4.9 11 Sur 19 Sur -- -- -- 93
2020-01-27 00:00:00 5 8 Sur 17 Sur -- -- -- 92
2020-01-26 23:00:00 6.1 9 Sur 18 Sudoeste -- -- -- 90
2020-01-26 22:00:00 7.2 8 Sudoeste 21 Sudoeste -- -- -- 87
2020-01-26 21:00:00 7.5 12 Sudoeste 19 Sudoeste -- -- -- 83
2020-01-26 20:00:00 7.5 6 Sudoeste 11 Sudoeste -- -- -- 80
2020-01-26 19:00:00 8 6 Oeste 18 Oeste -- -- -- 76
2020-01-26 18:00:00 8.6 10 Oeste 18 Oeste -- -- -- 72
2020-01-26 17:00:00 9 11 Oeste 26 Oeste -- -- -- 69
2020-01-26 16:00:00 9.3 16 Oeste 26 Oeste -- -- -- 68
2020-01-26 15:00:00 9.5 14 Oeste 25 Oeste -- -- -- 65
2020-01-26 14:00:00 7.5 7 Oeste 22 Oeste -- -- -- 80
2020-01-26 13:00:00 7.5 14 Oeste 25 Oeste -- -- -- 81
2020-01-26 12:00:00 5.7 9 Sudoeste 16 Sudoeste -- -- -- 90
2020-01-26 11:00:00 3.5 5 Sur 11 Sur -- -- -- 99
2020-01-26 10:00:00 0.7 7 Sur 9 Sur -- -- -- 99
2020-01-26 09:00:00 -1.6 9 Sur 14 Sur -- -- -- 99
2020-01-26 08:00:00 -1.5 9 Sur 13 Sur -- -- -- 98
2020-01-26 07:00:00 -1 7 Sur 13 Sur -- -- -- 99
2020-01-26 06:00:00 -1.8 6 Sur 10 Sur -- -- -- 98
2020-01-26 05:00:00 -1.2 9 Sur 12 Sur -- -- -- 98
2020-01-26 04:00:00 -0.1 8 Sur 11 Sudoeste -- -- -- 98
2020-01-26 03:00:00 1.1 5 Sudoeste 11 Sur -- -- -- 98
2020-01-26 02:00:00 0.9 6 Sur 9 Sur -- -- -- 99
2020-01-26 01:00:00 0.6 4 Sur 5 Sur -- -- -- 97
2020-01-26 00:00:00 0.6 0 Calma 5 Sudoeste -- -- -- 97
2020-01-25 23:00:00 0.3 0 Calma -- -- -- -- -- 96
2020-01-25 22:00:00 0.9 2 Sudeste 3 Este -- -- -- 96
2020-01-25 21:00:00 1 0 Calma 0 Calma -- -- -- 93
2020-01-25 20:00:00 2.7 0 Calma 2 Oeste -- -- -- 90
2020-01-25 19:00:00 6.2 3 Noroeste 7 Norte -- -- -- 86
2020-01-25 18:00:00 6.9 6 Norte 13 Norte -- -- -- 83
2020-01-25 17:00:00 7.1 9 Norte 17 Noroeste -- -- -- 85
2020-01-25 16:00:00 7.2 8 Norte 13 Norte -- -- -- 84
2020-01-25 15:00:00 7.2 5 Norte 9 Norte -- -- -- 84
2020-01-25 14:00:00 7.3 4 Nordeste 8 Nordeste -- -- -- 85
2020-01-25 13:00:00 6.7 4 Nordeste 11 Este -- -- -- 89
2020-01-25 12:00:00 6.1 6 Nordeste 10 Nordeste -- -- -- 94
2020-01-25 11:00:00 5 5 Nordeste 11 Nordeste -- -- -- 96
2020-01-25 10:00:00 3.8 3 Norte 8 Norte -- -- -- 96
2020-01-25 09:00:00 3.8 4 Norte 6 Norte -- -- -- 96
2020-01-25 08:00:00 3.9 0 Calma 8 Este -- -- -- 95
2020-01-25 07:00:00 4 4 Este 12 Este -- -- -- 94
2020-01-25 06:00:00 4 5 Nordeste 9 Este -- -- -- 95
2020-01-25 05:00:00 4.4 6 Este 10 Este -- -- -- 94
2020-01-25 04:00:00 4.9 6 Este 12 Este -- -- -- 93
2020-01-25 03:00:00 5 5 Sudeste 9 Este -- -- -- 94
2020-01-25 02:00:00 5.2 6 Este 15 Este -- -- -- 93
2020-01-25 01:00:00 5.4 12 Este 22 Este -- -- -- 93
2020-01-25 00:00:00 5.7 15 Este 22 Este -- -- -- 90
2020-01-24 23:00:00 5.5 6 Este 13 Este -- -- -- 89
2020-01-24 22:00:00 5.9 10 Este 16 Nordeste -- -- -- 85
2020-01-24 21:00:00 5.6 2 Este 5 Este -- -- -- 87
2020-01-24 20:00:00 5.9 4 Sudeste 6 Sudeste -- -- -- 85
2020-01-24 19:00:00 6.9 4 Sudeste 7 Sudeste -- -- -- 82
2020-01-24 18:00:00 8.1 5 Sur 11 Sur -- -- -- 74
2020-01-24 17:00:00 8.6 9 Sur 19 Sur -- -- -- 73
2020-01-24 16:00:00 9 7 Sur 14 Sudoeste -- -- -- 74
2020-01-24 15:00:00 8.9 8 Sudoeste 14 Sur -- -- -- 70
2020-01-24 14:00:00 8.9 9 Sur 16 Sudeste -- -- -- 72
2020-01-24 13:00:00 8.8 10 Sudeste 19 Sudeste -- -- -- 73
2020-01-24 12:00:00 8.5 7 Sur 14 Sur -- -- -- 78
2020-01-24 11:00:00 7.3 5 Este 13 Este -- -- -- 86
2020-01-24 10:00:00 5.1 6 Sudeste 12 Sudeste -- -- -- 96
2020-01-24 09:00:00 4.6 8 Este 12 Este -- -- -- 95
2020-01-24 08:00:00 5.2 7 Este 12 Sudeste -- -- -- 94
2020-01-24 07:00:00 5.1 6 Sudeste 9 Sudeste -- -- -- 94
2020-01-24 06:00:00 5.1 5 Este 9 Este -- -- -- 94
2020-01-24 05:00:00 5.4 5 Este 8 Este -- -- -- 92
2020-01-24 04:00:00 5.4 0 Calma 9 Sudeste -- -- -- 90
2020-01-24 03:00:00 5.8 5 Sur 15 Sudeste -- -- -- 90
2020-01-24 02:00:00 5.8 5 Sudeste 12 Este -- -- -- 91
2020-01-24 01:00:00 6 7 Este 11 Sur -- -- -- 91
2020-01-24 00:00:00 6.2 6 Sur 10 Sudeste -- -- -- 90
2020-01-23 23:00:00 6.1 6 Sudeste 18 Sudeste -- -- -- 90
2020-01-23 22:00:00 6.5 10 Sudeste 16 Sudeste -- -- -- 86
2020-01-23 21:00:00 6.3 9 Sudeste 19 Sudeste -- -- -- 85
2020-01-23 20:00:00 6.7 13 Sudeste 26 Sudeste -- -- -- 83
2020-01-23 19:00:00 6.5 4 Sudeste 9 Sudeste -- -- -- 86
2020-01-23 18:00:00 7.1 5 Sudeste 13 Sur -- -- -- 85
2020-01-23 17:00:00 7.5 5 Sudeste 12 Sudeste -- -- -- 81
2020-01-23 16:00:00 7.8 7 Sudeste 17 Sudeste -- -- -- 79
2020-01-23 15:00:00 7.5 10 Sudeste 18 Sudeste -- -- -- 81
2020-01-23 14:00:00 6.6 11 Este 21 Nordeste -- -- -- 84
2020-01-23 13:00:00 5 12 Este 17 Este -- -- -- 89
2020-01-23 12:00:00 3.5 10 Este 17 Este -- -- -- 93
2020-01-23 11:00:00 3 8 Nordeste 13 Este -- -- -- 92
2020-01-23 10:00:00 2.9 5 Nordeste 11 Nordeste -- -- -- 93
2020-01-23 09:00:00 3.2 3 Nordeste 12 Este -- -- -- 92
2020-01-23 08:00:00 3.4 8 Este 13 Este -- -- -- 91
2020-01-23 07:00:00 3.6 8 Este 14 Este -- -- -- 91
2020-01-23 06:00:00 3.2 0 Calma 13 Este -- -- -- 90
2020-01-23 05:00:00 4 9 Este 20 Este -- -- -- 88
2020-01-23 04:00:00 4.2 10 Este 19 Este -- -- -- 87
2020-01-23 03:00:00 4.1 9 Este 13 Este -- -- -- 86
2020-01-23 02:00:00 4.3 8 Este 15 Este -- -- -- 85
2020-01-23 01:00:00 4.8 8 Este 19 Este -- -- -- 83
2020-01-23 00:00:00 4.1 12 Este 17 Este -- -- -- 84
2020-01-22 23:00:00 3 9 Este 14 Este -- -- -- 87
2020-01-22 22:00:00 3.4 8 Este 17 Este -- -- -- 85
2020-01-22 21:00:00 5 12 Este 18 Nordeste -- -- -- 80
2020-01-22 20:00:00 5.2 8 Este 14 Este -- -- -- 79
2020-01-22 19:00:00 6.3 8 Este 13 Este -- -- -- 75
2020-01-22 18:00:00 7.7 5 Este 24 Este -- -- -- 73
2020-01-22 17:00:00 8.3 12 Este 27 Este -- -- -- 69
2020-01-22 16:00:00 8.8 14 Este 29 Este -- -- -- 69
2020-01-22 15:00:00 8.4 21 Este 37 Este -- -- -- 70
2020-01-22 14:00:00 8.6 19 Este 37 Este -- -- -- 71
2020-01-22 13:00:00 7.2 21 Este 38 Este -- -- -- 76
2020-01-22 12:00:00 5.3 18 Nordeste 36 Este -- -- -- 80
2020-01-22 11:00:00 4.8 19 Nordeste 31 Nordeste -- -- -- 83
2020-01-22 10:00:00 3.9 17 Este 32 Este -- -- -- 86
2020-01-22 09:00:00 3.7 22 Este 37 Nordeste -- -- -- 87
2020-01-22 08:00:00 3.5 21 Nordeste 32 Este -- -- -- 88
2020-01-22 07:00:00 3.6 18 Nordeste 35 Este -- -- -- 88
2020-01-22 06:00:00 3.7 23 Este 38 Este -- -- -- 86
2020-01-22 05:00:00 3.7 23 Nordeste 42 Nordeste -- -- -- 85
2020-01-22 04:00:00 3.9 20 Nordeste 31 Nordeste -- -- -- 84
2020-01-22 03:00:00 3.9 17 Este 28 Este -- -- -- 83
2020-01-22 02:00:00 3.5 10 Este 32 Este -- -- -- 85
2020-01-22 01:00:00 3.8 13 Este 32 Este -- -- -- 83
2020-01-22 00:00:00 3.8 14 Este 37 Este -- -- -- 83